Time;durP1;ratioP1;P1;durP2;ratioP2;P2;SDS_P1;SDS_P2;PMS_P1;PMS_P2;Temp;Humidity;BMP_temperature;BMP_pressure;BME280_temperature;BME280_humidity;BME280_pressure;Samples;Min_cycle;Max_cycle;Signal;HPM_P1;HPM_P2
2022/12/31 00:00:09;;;;;;;1.45;0.90;;;;;;;;;;5033284;28;20140;-74
2022/12/31 00:02:37;;;;;;;1.90;1.02;;;;;;;;;;5027152;28;20049;-74
2022/12/31 00:05:06;;;;;;;1.95;1.00;;;;;;;;;;5033209;28;20136;-74
2022/12/31 00:07:34;;;;;;;1.52;1.10;;;13.90;71.80;;;;;;5032635;28;20053;-74
2022/12/31 00:10:01;;;;;;;1.65;0.93;;;;;;;;;;5032858;28;20053;-74
2022/12/31 00:12:28;;;;;;;1.25;0.90;;;;;;;;;;5032376;28;20053;-74
2022/12/31 00:14:55;;;;;;;1.23;0.90;;;;;;;;;;5033020;28;20129;-74
2022/12/31 00:17:22;;;;;;;1.23;0.90;;;;;;;;;;5031984;28;20063;-74
2022/12/31 00:19:51;;;;;;;2.38;1.13;;;;;;;;;;5031833;28;20057;-74
2022/12/31 00:22:18;;;;;;;1.27;0.90;;;;;;;;;;5032352;28;20049;-74
2022/12/31 00:24:45;;;;;;;1.10;1.00;;;;;;;;;;5032254;28;20045;-74
2022/12/31 00:27:12;;;;;;;1.60;1.10;;;;;;;;;;5032498;28;20159;-74
2022/12/31 00:29:39;;;;;;;1.60;1.00;;;;;;;;;;5032441;28;20064;-74
2022/12/31 00:32:06;;;;;;;1.63;1.10;;;;;;;;;;5019234;28;20149;-74
2022/12/31 00:34:33;;;;;;;1.23;0.90;;;;;;;;;;5012958;28;20058;-74
2022/12/31 00:37:01;;;;;;;1.60;1.00;;;;;;;;;;5018490;28;20056;-74
2022/12/31 00:39:29;;;;;;;1.08;0.90;;;;;;;;;;5012705;28;20479;-74
2022/12/31 00:41:56;;;;;;;1.48;1.15;;;;;;;;;;5012544;28;20050;-74
2022/12/31 00:44:23;;;;;;;1.65;1.10;;;;;;;;;;5012481;28;20057;-74
2022/12/31 00:46:50;;;;;;;1.60;1.00;;;;;;;;;;5024758;28;20441;-74
2022/12/31 00:49:17;;;;;;;1.55;0.90;;;;;;;;;;5032151;28;20463;-74
2022/12/31 00:51:45;;;;;;;1.25;1.00;;;;;;;;;;5032410;28;20144;-74
2022/12/31 00:54:13;;;;;;;1.65;1.00;;;;;;;;;;5031709;28;20458;-73
2022/12/31 00:56:40;;;;;;;1.38;1.05;;;;;;;;;;5031879;28;20128;-73
2022/12/31 00:59:07;;;;;;;0.93;0.85;;;;;;;;;;5031925;28;20050;-74
2022/12/31 01:01:35;;;;;;;1.27;0.90;;;13.90;69.90;;;;;;5031286;28;20132;-74
2022/12/31 01:04:04;;;;;;;1.08;0.80;;;13.80;70.00;;;;;;5031211;28;20063;-74
2022/12/31 01:06:31;;;;;;;1.13;1.00;;;;;;;;;;5031891;28;20128;-74
2022/12/31 01:08:58;;;;;;;1.17;0.93;;;;;;;;;;5031698;28;20060;-74
2022/12/31 01:11:28;;;;;;;1.10;1.00;;;;;;;;;;5031260;28;20057;-74
2022/12/31 01:13:55;;;;;;;1.70;1.05;;;13.70;70.90;;;;;;5031390;28;20132;-74
2022/12/31 01:16:23;;;;;;;0.85;0.80;;;;;;;;;;5030664;28;20129;-74
2022/12/31 01:18:50;;;;;;;1.75;1.20;;;;;;;;;;5031827;28;20057;-74
2022/12/31 01:21:18;;;;;;;1.60;0.82;;;;;;;;;;5031589;28;20136;-74
2022/12/31 01:23:45;;;;;;;1.13;0.90;;;;;;;;;;5031325;28;20483;-74
2022/12/31 01:26:12;;;;;;;1.00;0.90;;;13.70;69.90;;;;;;5031750;28;20405;-74
2022/12/31 01:28:40;;;;;;;1.38;1.10;;;13.80;72.30;;;;;;5028290;28;20054;-74
2022/12/31 01:31:08;;;;;;;1.52;0.95;;;;;;;;;;5011845;28;20060;-74
2022/12/31 01:33:35;;;;;;;1.23;0.93;;;;;;;;;;5010980;28;20057;-74
2022/12/31 01:36:03;;;;;;;1.40;0.90;;;;;;;;;;5013413;28;20430;-74
2022/12/31 01:38:30;;;;;;;1.33;0.90;;;;;;;;;;5030971;28;20065;-74
2022/12/31 01:40:57;;;;;;;0.80;0.80;;;;;;;;;;5030976;28;20053;-74
2022/12/31 01:43:24;;;;;;;0.70;0.70;;;;;;;;;;5030502;28;20073;-74
2022/12/31 01:45:53;;;;;;;1.10;1.00;;;13.80;72.10;;;;;;5031255;28;20136;-74
2022/12/31 01:48:22;;;;;;;1.42;0.88;;;13.70;72.20;;;;;;5031213;28;20068;-74
2022/12/31 01:50:49;;;;;;;1.20;0.95;;;;;;;;;;5030944;28;20063;-74
2022/12/31 01:53:16;;;;;;;0.80;0.80;;;;;;;;;;5030640;28;20049;-74
2022/12/31 01:55:44;;;;;;;1.25;0.98;;;;;;;;;;5031164;28;20057;-74
2022/12/31 01:58:12;;;;;;;1.27;0.80;;;;;;;;;;5030216;28;20140;-74
2022/12/31 02:00:39;;;;;;;1.15;0.85;;;;;;;;;;5030925;28;20064;-74
2022/12/31 02:03:07;;;;;;;1.27;0.98;;;;;;;;;;5030826;28;20132;-74
2022/12/31 02:05:36;;;;;;;0.98;0.80;;;13.70;72.20;;;;;;5030790;28;20059;-74
2022/12/31 02:08:03;;;;;;;0.95;0.90;;;;;;;;;;5030767;28;20049;-74
2022/12/31 02:10:30;;;;;;;1.23;1.10;;;;;;;;;;5030851;28;20060;-74
2022/12/31 02:12:57;;;;;;;0.93;0.90;;;;;;;;;;5029751;28;20124;-74
2022/12/31 02:15:27;;;;;;;2.08;1.05;;;;;;;;;;5030850;28;20141;-74
2022/12/31 02:18:03;;;;;;;0.98;0.88;;;13.70;70.10;;;;;;5030409;28;20054;-74
2022/12/31 02:20:47;;;;;;;0.95;0.93;;;;;;;;;;5030526;28;20049;-74
2022/12/31 02:23:25;;;;;;;1.05;0.80;;;;;;;;;;5030197;28;20065;-74
2022/12/31 02:26:04;;;;;;;0.85;0.80;;;13.60;72.30;;;;;;5030801;28;20140;-74
2022/12/31 02:28:35;;;;;;;1.17;0.95;;;;;;;;;;5011093;28;20480;-74
2022/12/31 02:31:05;;;;;;;0.95;0.90;;;;;;;;;;5027416;28;20057;-74
2022/12/31 02:33:33;;;;;;;1.48;1.00;;;;;;;;;;5026754;28;20225;-74
2022/12/31 02:36:00;;;;;;;1.10;0.90;;;;;;;;;;5028390;28;20054;-74
2022/12/31 02:38:29;;;;;;;0.98;0.90;;;13.60;71.70;;;;;;5030633;28;20136;-74
2022/12/31 02:40:57;;;;;;;0.80;0.80;;;;;;;;;;5029889;28;20123;-74
2022/12/31 02:43:24;;;;;;;0.70;0.70;;;;;;;;;;5030253;28;20075;-74
2022/12/31 02:45:51;;;;;;;0.60;0.60;;;;;;;;;;5030509;28;20053;-74
2022/12/31 02:48:23;;;;;;;1.17;0.90;;;;;;;;;;5030310;28;20140;-74
2022/12/31 02:50:55;;;;;;;1.17;1.00;;;;;;;;;;5030618;28;20060;-74
2022/12/31 02:53:26;;;;;;;0.80;0.80;;;;;;;;;;5030036;28;20439;-74
2022/12/31 02:55:53;;;;;;;1.50;1.02;;;;;;;;;;5029688;28;20055;-74
2022/12/31 03:02:12;;;;;;;1.25;0.90;;;;;;;;;;5030109;28;20057;-74
2022/12/31 03:04:30;;;;;;;1.30;0.95;;;;;;;;;;5004597;28;20049;-74
2022/12/31 03:06:48;;;;;;;0.70;0.70;;;;;;;;;;5028154;28;20046;-74
2022/12/31 03:09:15;;;;;;;0.70;0.70;;;;;;;;;;5029989;28;20144;-74
2022/12/31 03:14:27;;;;;;;0.70;0.70;;;;;;;;;;5030075;28;20049;-74
2022/12/31 03:16:54;;;;;;;0.88;0.75;;;;;;;;;;5030174;28;20053;-74
2022/12/31 03:27:36;;;;;;;0.88;0.80;;;;;;;;;;5033544;28;20079;-74
2022/12/31 03:30:04;;;;;;;1.15;0.80;;;;;;;;;;5034087;28;20057;-74
2022/12/31 03:32:31;;;;;;;1.10;0.75;;;;;;;;;;5033114;28;20053;-74
2022/12/31 03:34:59;;;;;;;1.10;0.80;;;;;;;;;;5031224;28;20136;-74
2022/12/31 03:37:26;;;;;;;0.80;0.80;;;;;;;;;;5026794;28;20136;-74
2022/12/31 03:39:53;;;;;;;0.90;0.80;;;;;;;;;;5032925;28;20057;-74
2022/12/31 03:42:20;;;;;;;0.80;0.80;;;;;;;;;;5033287;28;20057;-74
2022/12/31 03:44:47;;;;;;;0.70;0.70;;;;;;;;;;5032894;28;20049;-74
2022/12/31 03:47:14;;;;;;;0.80;0.80;;;;;;;;;;5033329;28;20045;-74
2022/12/31 03:49:41;;;;;;;1.20;0.80;;;;;;;;;;5025947;28;20050;-74
2022/12/31 03:52:10;;;;;;;0.95;0.85;;;;;;;;;;5013495;28;20050;-74
2022/12/31 03:54:37;;;;;;;0.95;0.80;;;;;;;;;;5013274;28;20050;-74
2022/12/31 03:57:04;;;;;;;0.70;0.70;;;;;;;;;;5013620;28;20064;-74
2022/12/31 03:59:31;;;;;;;0.90;0.90;;;;;;;;;;5013618;28;20053;-74
2022/12/31 04:01:58;;;;;;;0.98;0.80;;;;;;;;;;5013270;28;20066;-74
2022/12/31 04:04:25;;;;;;;0.93;0.77;;;;;;;;;;5019626;28;20049;-74
2022/12/31 04:06:52;;;;;;;0.70;0.70;;;;;;;;;;5026753;28;20064;-74
2022/12/31 04:09:20;;;;;;;0.77;0.77;;;;;;;;;;5033053;28;20140;-74
2022/12/31 04:11:48;;;;;;;0.80;0.80;;;;;;;;;;5032940;28;20474;-74
2022/12/31 04:14:16;;;;;;;0.80;0.80;;;;;;;;;;5032787;28;20410;-74
2022/12/31 04:16:43;;;;;;;0.60;0.60;;;;;;;;;;5032890;28;20487;-74
2022/12/31 04:19:10;;;;;;;0.70;0.70;;;;;;;;;;5032102;28;20059;-74
2022/12/31 04:21:37;;;;;;;0.80;0.80;;;;;;;;;;5032710;28;20081;-74
2022/12/31 04:24:04;;;;;;;0.80;0.68;;;;;;;;;;5032180;28;20051;-74
2022/12/31 04:26:32;;;;;;;0.70;0.70;;;;;;;;;;5032851;28;20132;-74
2022/12/31 04:28:59;;;;;;;0.55;0.55;;;;;;;;;;5032597;28;20140;-74
2022/12/31 04:31:27;;;;;;;0.65;0.65;;;;;;;;;;5032749;28;20096;-74
2022/12/31 04:33:54;;;;;;;0.65;0.65;;;;;;;;;;5021033;28;20054;-74
2022/12/31 04:36:21;;;;;;;0.85;0.70;;;;;;;;;;5016899;28;20134;-74
2022/12/31 04:38:48;;;;;;;0.85;0.80;;;;;;;;;;5031441;28;20064;-74
2022/12/31 04:41:18;;;;;;;0.73;0.70;;;;;;;;;;5032256;28;20053;-74
2022/12/31 04:43:47;;;;;;;0.70;0.70;;;;;;;;;;5032258;28;20548;-74
2022/12/31 04:46:14;;;;;;;0.65;0.65;;;;;;;;;;5031907;28;20049;-74
2022/12/31 04:48:41;;;;;;;0.80;0.80;;;;;;;;;;5019011;28;20053;-74
2022/12/31 04:51:08;;;;;;;0.68;0.65;;;;;;;;;;5013597;28;20062;-74
2022/12/31 04:53:35;;;;;;;0.60;0.60;;;;;;;;;;5031928;28;20054;-74
2022/12/31 04:56:02;;;;;;;0.63;0.63;;;;;;;;;;5032013;28;20057;-74
2022/12/31 04:58:29;;;;;;;0.85;0.70;;;;;;;;;;5032081;28;20132;-74
2022/12/31 05:00:58;;;;;;;0.75;0.75;;;;;;;;;;5032000;28;20140;-74
2022/12/31 05:03:25;;;;;;;0.70;0.70;;;;;;;;;;5031233;28;20071;-74
2022/12/31 05:05:52;;;;;;;0.70;0.70;;;;;;;;;;5031451;28;20538;-74
2022/12/31 05:08:19;;;;;;;0.70;0.70;;;;;;;;;;5033153;28;20417;-74
2022/12/31 05:10:47;;;;;;;0.77;0.65;;;13.90;71.60;;;;;;5031537;28;20057;-74
2022/12/31 05:13:14;;;;;;;0.70;0.70;;;;;;;;;;5031793;28;20060;-74
2022/12/31 05:15:41;;;;;;;0.60;0.60;;;;;;;;;;5031696;28;20155;-73
2022/12/31 05:18:10;;;;;;;0.65;0.65;;;;;;;;;;5031489;28;20071;-74
2022/12/31 05:20:37;;;;;;;0.52;0.52;;;;;;;;;;5031368;28;20061;-74
2022/12/31 05:23:04;;;;;;;0.60;0.60;;;;;;;;;;5031618;28;20053;-74
2022/12/31 05:25:31;;;;;;;0.60;0.60;;;;;;;;;;5031666;28;20573;-74
2022/12/31 05:27:58;;;;;;;0.63;0.60;;;;;;;;;;5031372;28;20057;-74
2022/12/31 05:30:25;;;;;;;0.90;0.70;;;;;;;;;;5031538;28;20063;-74
2022/12/31 05:32:52;;;;;;;0.80;0.80;;;;;;;;;;5014475;28;20484;-74
2022/12/31 05:35:20;;;;;;;0.70;0.70;;;;;;;;;;5011513;28;20050;-74
2022/12/31 05:37:47;;;;;;;0.60;0.60;;;;;;;;;;5024060;28;20487;-74
2022/12/31 05:40:14;;;;;;;0.70;0.70;;;;;;;;;;5011874;28;20483;-74
2022/12/31 05:42:41;;;;;;;0.93;0.60;;;;;;;;;;5011464;28;20060;-74
2022/12/31 05:45:12;;;;;;;0.60;0.60;;;;;;;;;;5012528;28;20562;-74
2022/12/31 05:47:39;;;;;;;0.60;0.60;;;;;;;;;;5031065;28;20045;-74
2022/12/31 05:50:07;;;;;;;0.80;0.80;;;;;;;;;;5031242;28;20116;-73
2022/12/31 05:52:36;;;;;;;0.70;0.70;;;;;;;;;;5031138;28;20088;-74
2022/12/31 05:55:03;;;;;;;0.75;0.73;;;;;;;;;;5030844;28;20060;-74
2022/12/31 05:57:30;;;;;;;1.00;0.70;;;;;;;;;;5030824;28;20060;-74
2022/12/31 05:59:57;;;;;;;0.93;0.77;;;;;;;;;;5030373;28;20109;-74
2022/12/31 06:02:24;;;;;;;0.60;0.60;;;;;;;;;;5024642;28;20558;-74
2022/12/31 06:04:51;;;;;;;0.60;0.60;;;;;;;;;;5027177;28;20137;-74
2022/12/31 06:07:18;;;;;;;0.85;0.80;;;;;;;;;;5018677;28;20057;-74
2022/12/31 06:09:47;;;;;;;0.82;0.60;;;;;;;;;;5030804;28;20053;-74
2022/12/31 06:12:14;;;;;;;1.27;0.60;;;;;;;;;;5030626;28;20077;-74
2022/12/31 06:14:41;;;;;;;0.60;0.60;;;;;;;;;;5030184;28;20046;-74
2022/12/31 06:17:09;;;;;;;0.60;0.60;;;;;;;;;;5030859;28;20057;-74
2022/12/31 06:19:36;;;;;;;0.57;0.57;;;;;;;;;;5030698;28;20060;-74
2022/12/31 06:22:03;;;;;;;0.60;0.60;;;;;;;;;;5030899;28;20057;-74
2022/12/31 06:24:30;;;;;;;0.95;0.70;;;;;;;;;;5030449;28;20049;-74
2022/12/31 06:26:58;;;;;;;0.60;0.60;;;;;;;;;;5030457;28;20063;-74
2022/12/31 06:29:25;;;;;;;0.60;0.60;;;;;;;;;;5025838;28;20744;-74
2022/12/31 06:31:52;;;;;;;0.60;0.60;;;;;;;;;;5019752;28;20421;-74
2022/12/31 06:34:20;;;;;;;0.50;0.50;;;;;;;;;;5010625;28;20487;-74
2022/12/31 06:36:47;;;;;;;0.70;0.60;;;;;;;;;;5018140;28;20478;-74
2022/12/31 06:39:14;;;;;;;0.50;0.50;;;;;;;;;;5030622;28;20554;-74
2022/12/31 06:41:41;;;;;;;1.17;0.70;;;;;;;;;;5030564;28;20080;-74
2022/12/31 06:44:09;;;;;;;0.52;0.52;;;;;;;;;;5029775;28;20049;-74
2022/12/31 06:46:36;;;;;;;0.60;0.60;;;;;;;;;;5030615;28;20053;-74
2022/12/31 06:49:04;;;;;;;0.70;0.70;;;;;;;;;;5030383;28;20059;-74
2022/12/31 06:51:31;;;;;;;0.70;0.60;;;;;;;;;;5030831;28;20053;-74
2022/12/31 06:53:58;;;;;;;0.88;0.70;;;;;;;;;;5030023;28;20061;-74
2022/12/31 06:56:27;;;;;;;0.60;0.60;;;13.90;71.90;;;;;;5030558;28;20550;-74
2022/12/31 06:58:54;;;;;;;0.70;0.70;;;;;;;;;;5018213;28;20057;-74
2022/12/31 07:01:35;;;;;;;0.60;0.60;;;;;;;;;;5012416;28;20483;-74
2022/12/31 07:04:05;;;;;;;0.60;0.60;;;;;;;;;;5014329;28;20046;-74
2022/12/31 07:06:34;;;;;;;0.63;0.60;;;13.90;70.10;;;;;;5015628;28;20132;-74
2022/12/31 07:09:02;;;;;;;0.60;0.60;;;;;;;;;;5033999;28;20136;-74
2022/12/31 07:11:29;;;;;;;0.60;0.60;;;;;;;;;;5033902;28;20542;-74
2022/12/31 07:14:03;;;;;;;0.50;0.50;;;14.00;71.80;;;;;;5019388;28;20056;-74
2022/12/31 07:16:33;;;;;;;0.55;0.55;;;;;;;;;;5033733;28;20056;-74
2022/12/31 07:19:08;;;;;;;0.80;0.60;;;13.90;72.10;;;;;;5033998;28;20053;-74
2022/12/31 07:21:35;;;;;;;0.50;0.50;;;;;;;;;;5033954;28;20467;-74
2022/12/31 07:24:03;;;;;;;0.68;0.63;;;;;;;;;;5033952;28;20075;-74
2022/12/31 07:26:35;;;;;;;0.50;0.50;;;;;;;;;;5033631;28;20053;-74
2022/12/31 07:29:06;;;;;;;0.50;0.50;;;14.00;72.10;;;;;;5032277;28;20055;-74
2022/12/31 07:31:39;;;;;;;1.00;0.68;;;13.90;72.10;;;;;;5033943;28;20068;-74
2022/12/31 07:34:09;;;;;;;0.68;0.60;;;13.90;71.50;;;;;;5033624;28;20053;-74
2022/12/31 07:36:55;;;;;;;0.50;0.50;;;;;;;;;;5033441;28;20505;-74
2022/12/31 07:39:23;;;;;;;0.60;0.60;;;;;;;;;;5030250;28;20132;-74
2022/12/31 07:41:52;;;;;;;0.50;0.50;;;;;;;;;;5029626;28;20053;-74
2022/12/31 07:44:50;;;;;;;0.60;0.60;;;14.00;72.10;;;;;;5013468;28;20054;-74
2022/12/31 07:47:21;;;;;;;0.80;0.60;;;;;;;;;;5025992;28;20136;-76
2022/12/31 07:49:50;;;;;;;0.93;0.60;;;14.00;72.40;;;;;;5016829;28;20133;-74
2022/12/31 07:52:17;;;;;;;0.70;0.70;;;;;;;;;;5013264;28;20084;-74
2022/12/31 07:54:44;;;;;;;0.50;0.50;;;;;;;;;;5029631;28;20541;-74
2022/12/31 07:57:12;;;;;;;0.77;0.70;;;;;;;;;;5013495;28;20406;-74
2022/12/31 07:59:42;;;;;;;0.85;0.70;;;;;;;;;;5028943;28;20560;-74
2022/12/31 08:02:13;;;;;;;1.77;0.80;;;;;;;;;;5028092;28;20144;-74
2022/12/31 08:04:41;;;;;;;0.80;0.80;;;;;;;;;;5032478;28;20060;-74
2022/12/31 08:07:15;;;;;;;1.05;0.80;;;14.20;71.80;;;;;;5025727;28;20092;-74
2022/12/31 08:09:43;;;;;;;2.63;0.90;;;;;;;;;;5032926;28;20060;-74
2022/12/31 08:12:10;;;;;;;0.70;0.70;;;;;;;;;;5031944;28;20474;-74
2022/12/31 08:14:38;;;;;;;2.28;0.70;;;;;;;;;;5032710;28;20497;-74
2022/12/31 08:17:05;;;;;;;0.80;0.70;;;;;;;;;;5032693;28;20057;-74
2022/12/31 08:19:32;;;;;;;1.42;0.77;;;;;;;;;;5026045;28;20502;-74
2022/12/31 08:22:12;;;;;;;1.60;0.80;;;14.50;71.50;;;;;;5032864;28;20072;-73
2022/12/31 08:24:41;;;;;;;1.13;0.85;;;;;;;;;;5032193;28;20472;-74
2022/12/31 08:27:10;;;;;;;0.75;0.73;;;14.50;70.20;;;;;;5032572;28;20053;-74
2022/12/31 08:29:39;;;;;;;0.88;0.68;;;;;;;;;;5032523;28;20143;-73
2022/12/31 08:32:08;;;;;;;1.13;0.82;;;;;;;;;;5032408;28;20409;-73
2022/12/31 08:34:36;;;;;;;0.88;0.80;;;;;;;;;;5032434;28;20049;-74
2022/12/31 08:37:06;;;;;;;0.82;0.70;;;14.60;71.10;;;;;;5032392;28;20077;-73
2022/12/31 08:39:43;;;;;;;1.30;0.82;;;14.70;69.80;;;;;;5032315;28;20049;-74
2022/12/31 08:42:14;;;;;;;1.13;0.65;;;;;;;;;;5012627;28;20054;-73
2022/12/31 08:44:43;;;;;;;1.52;0.80;;;14.70;71.00;;;;;;5012104;28;20129;-74
2022/12/31 08:47:15;;;;;;;0.63;0.60;;;14.70;71.10;;;;;;5012986;28;20064;-73
2022/12/31 08:49:43;;;;;;;1.20;0.80;;;;;;;;;;5020212;28;20051;-73
2022/12/31 08:52:14;;;;;;;1.02;0.73;;;14.80;71.10;;;;;;5025709;28;20055;-73
2022/12/31 08:54:43;;;;;;;0.98;0.70;;;;;;;;;;5024363;28;20051;-74
2022/12/31 08:57:14;;;;;;;0.80;0.70;;;14.80;71.00;;;;;;5020673;28;20506;-73
2022/12/31 08:59:44;;;;;;;1.33;0.70;;;14.90;70.70;;;;;;5023948;28;20406;-73
2022/12/31 09:02:39;;;;;;;1.00;0.80;;;14.90;71.20;;;;;;5020539;28;20133;-74
2022/12/31 09:05:08;;;;;;;2.42;0.75;;;;;;;;;;5046607;28;20124;-73
2022/12/31 09:07:36;;;;;;;1.02;0.75;;;;;;;;;;5022355;28;20494;-73
2022/12/31 09:10:06;;;;;;;0.70;0.70;;;;;;;;;;5025558;28;20055;-73
2022/12/31 09:12:35;;;;;;;0.82;0.75;;;;;;;;;;5023167;28;20060;-73
2022/12/31 09:15:04;;;;;;;0.70;0.70;;;;;;;;;;5021274;28;20049;-73
2022/12/31 09:17:43;;;;;;;0.80;0.57;;;15.00;69.30;;;;;;5017314;28;20046;-73
2022/12/31 09:20:20;;;;;;;0.60;0.60;;;15.00;70.80;;;;;;5023651;28;20049;-74
2022/12/31 09:22:47;;;;;;;2.00;0.80;;;;;;;;;;5024342;28;20461;-74
2022/12/31 09:25:17;;;;;;;0.60;0.60;;;15.10;70.20;;;;;;5023098;28;20053;-74
2022/12/31 09:27:45;;;;;;;0.98;0.82;;;;;;;;;;5019398;28;20064;-73
2022/12/31 09:30:13;;;;;;;0.70;0.70;;;;;;;;;;5018640;28;20048;-73
2022/12/31 09:32:44;;;;;;;1.48;0.80;;;15.10;70.60;;;;;;5020912;28;20540;-74
2022/12/31 09:35:13;;;;;;;0.93;0.70;;;;;;;;;;5020420;28;20042;-73
2022/12/31 09:37:43;;;;;;;1.50;0.80;;;;;;;;;;5021669;28;20063;-74
2022/12/31 09:40:16;;;;;;;1.20;0.80;;;;;;;;;;5018319;28;20054;-73
2022/12/31 09:42:59;;;;;;;0.68;0.68;;;15.20;70.80;;;;;;5023223;28;20056;-73
2022/12/31 09:45:41;;;;;;;0.93;0.60;;;;;;;;;;5025139;28;20052;-73
2022/12/31 09:48:22;;;;;;;0.60;0.60;;;;;;;;;;5008471;28;20054;-73
2022/12/31 09:50:52;;;;;;;1.10;0.60;;;;;;;;;;5023170;28;20050;-73
2022/12/31 09:53:49;;;;;;;0.60;0.60;;;15.20;70.70;;;;;;5023716;28;20429;-73
2022/12/31 09:56:17;;;;;;;0.75;0.70;;;15.20;70.60;;;;;;5007907;28;20046;-73
2022/12/31 09:58:48;;;;;;;0.88;0.70;;;;;;;;;;5020467;28;20141;-73
2022/12/31 10:01:22;;;;;;;2.05;0.70;;;;;;;;;;5019910;28;20505;-73
2022/12/31 10:04:28;;;;;;;1.15;0.63;;;15.20;70.50;;;;;;5022751;28;20057;-73
2022/12/31 10:06:58;;;;;;;0.82;0.70;;;;;;;;;;5011932;28;20057;-73
2022/12/31 10:09:32;;;;;;;0.88;0.77;;;;;;;;;;5023482;28;20064;-73
2022/12/31 10:12:07;;;;;;;0.65;0.65;;;;;;;;;;5022929;28;20058;-73
2022/12/31 10:14:42;;;;;;;0.93;0.60;;;15.20;70.50;;;;;;5024442;28;20409;-73
2022/12/31 10:17:16;;;;;;;0.60;0.60;;;15.20;69.40;;;;;;5020413;28;20057;-73
2022/12/31 10:20:01;;;;;;;0.82;0.82;;;;;;;;;;5021508;28;20045;-73
2022/12/31 10:22:38;;;;;;;0.85;0.60;;;;;;;;;;5009487;28;20062;-73
2022/12/31 10:25:17;;;;;;;0.93;0.80;;;;;;;;;;5018816;28;20046;-73
2022/12/31 10:27:47;;;;;;;0.60;0.60;;;;;;;;;;5022002;28;20521;-73
2022/12/31 10:30:17;;;;;;;0.52;0.52;;;;;;;;;;5024629;28;20388;-73
2022/12/31 10:32:44;;;;;;;1.63;0.70;;;;;;;;;;5022516;28;20057;-74
2022/12/31 10:35:29;;;;;;;0.70;0.70;;;15.10;70.90;;;;;;5014036;28;20061;-74
2022/12/31 10:38:02;;;;;;;0.75;0.60;;;15.00;70.90;;;;;;5018015;28;20142;-73
2022/12/31 10:40:33;;;;;;;0.50;0.50;;;15.00;71.00;;;;;;5020196;28;20056;-73
2022/12/31 10:43:05;;;;;;;0.70;0.70;;;;;;;;;;5024690;28;20042;-73
2022/12/31 10:45:57;;;;;;;1.10;0.70;;;15.00;71.10;;;;;;5032823;28;20052;-73
2022/12/31 10:48:38;;;;;;;0.80;0.70;;;;;;;;;;5025828;28;20045;-73
2022/12/31 10:51:10;;;;;;;0.63;0.63;;;;;;;;;;5023641;28;20049;-73
2022/12/31 10:54:12;;;;;;;2.53;0.70;;;15.00;70.30;;;;;;5021933;28;20061;-73
2022/12/31 10:57:05;;;;;;;0.63;0.63;;;14.90;71.30;;;;;;5014494;28;20511;-74
2022/12/31 11:00:01;;;;;;;0.70;0.70;;;14.90;69.80;;;;;;5014750;28;20089;-73
2022/12/31 11:02:44;;;;;;;0.68;0.68;;;;;;;;;;5019226;28;20443;-73
2022/12/31 11:05:32;;;;;;;0.63;0.60;;;;;;;;;;5024985;28;20068;-74
2022/12/31 11:08:03;;;;;;;1.00;0.80;;;;;;;;;;5042679;28;20049;-73
2022/12/31 11:10:48;;;;;;;1.38;0.70;;;;;;;;;;5024293;28;20131;-74
2022/12/31 11:13:34;;;;;;;1.42;0.70;;;;;;;;;;5025121;28;20073;-74
2022/12/31 11:16:08;;;;;;;0.98;0.70;;;;;;;;;;5025547;28;20509;-74
2022/12/31 11:18:40;;;;;;;0.60;0.57;;;14.80;70.10;;;;;;5024945;28;20136;-74
2022/12/31 11:21:09;;;;;;;0.90;0.82;;;;;;;;;;5024009;28;20050;-74
2022/12/31 11:23:39;;;;;;;0.52;0.52;;;;;;;;;;5022542;28;20138;-74
2022/12/31 11:26:08;;;;;;;0.68;0.60;;;;;;;;;;5023552;28;20056;-74
2022/12/31 11:28:42;;;;;;;0.60;0.60;;;14.80;71.50;;;;;;5024614;28;20057;-73
2022/12/31 11:31:12;;;;;;;0.88;0.60;;;;;;;;;;5022433;28;20060;-74
2022/12/31 11:33:57;;;;;;;0.60;0.60;;;14.80;71.60;;;;;;5026689;28;20053;-74
2022/12/31 11:36:25;;;;;;;0.68;0.68;;;;;;;;;;5018169;28;20049;-74
2022/12/31 11:38:53;;;;;;;0.70;0.70;;;;;;;;;;5033023;28;20052;-74
2022/12/31 11:41:22;;;;;;;0.70;0.70;;;;;;;;;;5026241;28;20054;-73
2022/12/31 11:43:51;;;;;;;0.90;0.70;;;14.70;71.60;;;;;;5016265;28;20061;-74
2022/12/31 11:46:32;;;;;;;0.50;0.50;;;;;;;;;;5015303;28;20064;-73
2022/12/31 11:49:23;;;;;;;1.30;0.70;;;;;;;;;;5022634;28;20095;-73
2022/12/31 11:52:17;;;;;;;0.68;0.60;;;14.70;69.50;;;;;;5004700;28;20144;-72
2022/12/31 11:54:54;;;;;;;0.82;0.60;;;14.70;71.80;;;;;;5014560;28;20553;-72
2022/12/31 11:57:24;;;;;;;1.20;0.73;;;14.70;71.80;;;;;;5014385;28;20123;-73
2022/12/31 11:59:52;;;;;;;0.70;0.60;;;;;;;;;;5015895;28;20096;-73
2022/12/31 12:02:24;;;;;;;0.70;0.70;;;;;;;;;;5033317;28;20159;-73
2022/12/31 12:04:51;;;;;;;0.90;0.70;;;;;;;;;;5026039;28;20520;-73
2022/12/31 12:07:19;;;;;;;0.65;0.65;;;;;;;;;;5030148;28;20543;-73
2022/12/31 12:09:46;;;;;;;1.05;0.80;;;;;;;;;;5033409;28;20397;-74
2022/12/31 12:12:15;;;;;;;0.93;0.57;;;;;;;;;;5024617;28;20406;-74
2022/12/31 12:14:42;;;;;;;0.57;0.57;;;;;;;;;;5014086;28;20142;-74
2022/12/31 12:17:10;;;;;;;0.70;0.70;;;;;;;;;;5013248;28;20050;-73
2022/12/31 12:19:42;;;;;;;0.57;0.57;;;14.60;72.00;;;;;;5017209;28;20417;-73
2022/12/31 12:22:12;;;;;;;0.70;0.70;;;;;;;;;;5026592;28;20401;-73
2022/12/31 12:24:40;;;;;;;0.80;0.70;;;;;;;;;;5015826;28;20404;-73
2022/12/31 12:27:20;;;;;;;0.82;0.65;;;;;;;;;;5017290;28;20049;-73
2022/12/31 12:29:47;;;;;;;1.17;0.80;;;14.70;72.00;;;;;;5032685;28;20471;-73
2022/12/31 12:32:15;;;;;;;1.17;0.80;;;14.60;71.90;;;;;;5028918;28;20045;-73
2022/12/31 12:34:42;;;;;;;0.82;0.80;;;;;;;;;;5031108;28;20057;-73
2022/12/31 12:37:26;;;;;;;0.98;0.80;;;14.60;72.00;;;;;;5032157;28;20045;-73
2022/12/31 12:39:57;;;;;;;1.33;0.80;;;;;;;;;;5030725;28;20053;-73
2022/12/31 12:42:24;;;;;;;1.23;0.90;;;;;;;;;;5012949;28;20096;-73
2022/12/31 12:45:00;;;;;;;1.13;0.80;;;;;;;;;;5012700;28;20083;-73
2022/12/31 12:47:28;;;;;;;0.90;0.80;;;;;;;;;;5027696;28;20059;-73
2022/12/31 12:49:55;;;;;;;0.65;0.65;;;;;;;;;;5025141;28;20058;-73
2022/12/31 12:52:29;;;;;;;1.70;0.70;;;;;;;;;;5021072;28;20060;-73
2022/12/31 12:55:08;;;;;;;0.65;0.65;;;14.70;72.40;;;;;;5012814;28;20058;-73
2022/12/31 12:57:41;;;;;;;0.93;0.80;;;14.60;72.30;;;;;;5012421;28;20418;-73
2022/12/31 13:00:19;;;;;;;4.00;0.90;;;14.60;72.40;;;;;;5031799;28;20053;-73
2022/12/31 13:03:20;;;;;;;0.90;0.70;;;14.60;72.30;;;;;;5031544;28;20053;-73
2022/12/31 13:05:49;;;;;;;0.70;0.70;;;;;;;;;;5025188;28;20056;-73
2022/12/31 13:08:19;;;;;;;0.70;0.70;;;;;;;;;;5031763;28;20053;-73
2022/12/31 13:11:10;;;;;;;0.70;0.70;;;14.60;72.30;;;;;;5019103;28;20396;-73
2022/12/31 13:13:40;;;;;;;0.80;0.80;;;;;;;;;;5013583;28;20097;-74
2022/12/31 13:16:08;;;;;;;1.30;0.93;;;;;;;;;;5012481;28;20049;-74
2022/12/31 13:18:44;;;;;;;0.90;0.80;;;14.60;72.40;;;;;;5012100;28;20060;-74
2022/12/31 13:21:24;;;;;;;1.48;1.00;;;14.70;72.50;;;;;;5012079;28;20056;-74
2022/12/31 13:23:52;;;;;;;0.77;0.70;;;;;;;;;;5012091;28;20064;-73
2022/12/31 13:26:21;;;;;;;1.38;0.80;;;14.60;72.30;;;;;;5012003;28;20076;-73
2022/12/31 13:28:48;;;;;;;0.85;0.85;;;;;;;;;;5012050;28;20054;-73
2022/12/31 13:31:20;;;;;;;1.08;0.80;;;;;;;;;;5011828;28;20050;-73
2022/12/31 13:33:48;;;;;;;1.75;1.10;;;;;;;;;;5029051;28;20055;-73
2022/12/31 13:36:16;;;;;;;0.98;0.90;;;;;;;;;;5030912;28;20052;-73
2022/12/31 13:38:44;;;;;;;1.30;0.93;;;14.70;71.10;;;;;;5031689;28;20092;-73
2022/12/31 13:41:12;;;;;;;1.05;0.80;;;;;;;;;;5030196;28;20100;-73
2022/12/31 13:43:42;;;;;;;0.88;0.85;;;;;;;;;;5021637;28;20063;-74
2022/12/31 13:46:11;;;;;;;1.13;0.90;;;;;;;;;;5028581;28;20398;-74
2022/12/31 13:48:40;;;;;;;1.70;1.00;;;14.70;72.50;;;;;;5017259;28;20434;-73
2022/12/31 13:51:11;;;;;;;0.70;0.70;;;14.70;72.40;;;;;;5020976;28;20092;-73
2022/12/31 13:53:39;;;;;;;2.72;1.10;;;;;;;;;;5025438;28;20120;-74
2022/12/31 13:56:07;;;;;;;1.05;0.90;;;;;;;;;;5027385;28;20056;-74
2022/12/31 13:58:37;;;;;;;1.05;0.80;;;14.70;72.40;;;;;;5031110;28;20084;-74
2022/12/31 14:01:06;;;;;;;0.95;0.80;;;14.70;70.50;;;;;;5031545;28;20049;-73
2022/12/31 14:03:37;;;;;;;0.70;0.70;;;;;;;;;;5031246;28;20554;-74
2022/12/31 14:06:05;;;;;;;0.90;0.80;;;;;;;;;;5031239;28;20049;-74
2022/12/31 14:08:32;;;;;;;1.90;1.00;;;;;;;;;;5027702;28;20054;-73
2022/12/31 14:11:03;;;;;;;0.75;0.75;;;14.60;70.70;;;;;;5011223;28;20056;-74
2022/12/31 14:13:39;;;;;;;1.73;1.08;;;;;;;;;;5011038;28;20414;-74
2022/12/31 14:16:12;;;;;;;1.05;0.95;;;;;;;;;;5011204;28;20408;-74
2022/12/31 14:18:41;;;;;;;1.17;0.90;;;;;;;;;;5011250;28;20061;-74
2022/12/31 14:21:09;;;;;;;1.00;0.80;;;14.50;71.40;;;;;;5011352;28;20054;-73
2022/12/31 14:23:38;;;;;;;1.73;0.90;;;;;;;;;;5020673;28;20049;-73
2022/12/31 14:26:06;;;;;;;1.20;0.90;;;;;;;;;;5030950;28;20399;-74
2022/12/31 14:28:33;;;;;;;0.93;0.80;;;;;;;;;;5030938;28;20084;-74
2022/12/31 14:31:02;;;;;;;2.53;0.90;;;;;;;;;;5031010;28;20554;-74
2022/12/31 14:33:34;;;;;;;1.08;0.80;;;;;;;;;;5030582;28;20059;-74
2022/12/31 14:36:15;;;;;;;1.00;0.85;;;14.60;72.70;;;;;;5030206;28;20053;-74
2022/12/31 14:38:49;;;;;;;1.00;0.90;;;;;;;;;;5011983;28;20133;-74
2022/12/31 14:41:25;;;;;;;3.00;1.27;;;14.50;72.90;;;;;;5011288;28;20053;-74
2022/12/31 14:43:54;;;;;;;0.85;0.80;;;;;;;;;;5010943;28;20054;-74
2022/12/31 14:46:25;;;;;;;0.98;0.80;;;14.50;72.90;;;;;;5010617;28;20048;-74